Witt, Illinois
Current Conditions -  °F | °C
As of 10:35 AM on Saturday 25 Oct 2014 (Local Time) from KTAZ Reporting Station
Haze Haze  
Wind Chill: 64°   Ceiling: Unl
Heat Index: 64°   Visibility: 5mi
Dew Point: 59°   Wind: 7mph
Humidity: 83%   Direction: 290°WNW
Pressure: 30.04"   Gusts: NA
Location:  39.26°N, 89.35°W
Report Text: KTAZ 251535Z AUTO 29006KT 5SM HZ SCT011 18/15 A3004 RMK AO2
Loading
Personal Weather Stations






























Interactive Weather Map
Tropical Storm Tracking
New forecast layout! Learn more

10-Day Weather Forecast

Advertisements
Track Severe Weather on mobile